sensor_id;sensor_type;location;lat;lon;timestamp;P1;durP1;ratioP1;P2;durP2;ratioP2
28009;SDS011;15334;49.494;8.410;2022-10-16T00:01:20;4.05;;;1.80;;
28009;SDS011;15334;49.494;8.410;2022-10-16T00:03:50;3.57;;;2.07;;
28009;SDS011;15334;49.494;8.410;2022-10-16T00:06:19;6.47;;;2.28;;
28009;SDS011;15334;49.494;8.410;2022-10-16T00:08:50;5.07;;;2.42;;
28009;SDS011;15334;49.494;8.410;2022-10-16T00:11:19;5.30;;;2.22;;
28009;SDS011;15334;49.494;8.410;2022-10-16T00:13:50;5.57;;;2.55;;
28009;SDS011;15334;49.494;8.410;2022-10-16T00:16:22;5.90;;;2.60;;
28009;SDS011;15334;49.494;8.410;2022-10-16T00:18:51;6.22;;;2.85;;
28009;SDS011;15334;49.494;8.410;2022-10-16T00:21:20;4.25;;;2.15;;
28009;SDS011;15334;49.494;8.410;2022-10-16T00:23:51;6.22;;;2.70;;
28009;SDS011;15334;49.494;8.410;2022-10-16T00:26:20;7.32;;;2.33;;
28009;SDS011;15334;49.494;8.410;2022-10-16T00:28:48;4.00;;;2.35;;
28009;SDS011;15334;49.494;8.410;2022-10-16T00:31:18;6.07;;;2.65;;
28009;SDS011;15334;49.494;8.410;2022-10-16T00:33:49;5.60;;;2.25;;
28009;SDS011;15334;49.494;8.410;2022-10-16T00:36:18;7.57;;;2.53;;
28009;SDS011;15334;49.494;8.410;2022-10-16T00:38:49;4.30;;;2.10;;
28009;SDS011;15334;49.494;8.410;2022-10-16T00:41:19;8.55;;;2.60;;
28009;SDS011;15334;49.494;8.410;2022-10-16T00:43:48;6.60;;;2.13;;
28009;SDS011;15334;49.494;8.410;2022-10-16T00:46:18;4.03;;;2.17;;
28009;SDS011;15334;49.494;8.410;2022-10-16T00:48:50;5.97;;;2.63;;
28009;SDS011;15334;49.494;8.410;2022-10-16T00:51:25;3.83;;;2.00;;
28009;SDS011;15334;49.494;8.410;2022-10-16T00:53:57;4.97;;;2.80;;
28009;SDS011;15334;49.494;8.410;2022-10-16T00:56:26;4.45;;;2.25;;
28009;SDS011;15334;49.494;8.410;2022-10-16T00:58:54;3.78;;;1.98;;
28009;SDS011;15334;49.494;8.410;2022-10-16T01:01:22;5.47;;;2.65;;
28009;SDS011;15334;49.494;8.410;2022-10-16T01:03:52;5.30;;;2.40;;
28009;SDS011;15334;49.494;8.410;2022-10-16T01:06:22;6.22;;;2.25;;
28009;SDS011;15334;49.494;8.410;2022-10-16T01:09:06;4.28;;;2.25;;
28009;SDS011;15334;49.494;8.410;2022-10-16T01:11:44;5.28;;;2.58;;
28009;SDS011;15334;49.494;8.410;2022-10-16T01:14:26;8.63;;;3.60;;
28009;SDS011;15334;49.494;8.410;2022-10-16T01:16:58;4.75;;;2.35;;
28009;SDS011;15334;49.494;8.410;2022-10-16T01:19:39;4.03;;;2.22;;
28009;SDS011;15334;49.494;8.410;2022-10-16T01:22:18;4.70;;;2.10;;
28009;SDS011;15334;49.494;8.410;2022-10-16T01:24:52;5.25;;;2.55;;
28009;SDS011;15334;49.494;8.410;2022-10-16T01:27:26;5.40;;;2.33;;
28009;SDS011;15334;49.494;8.410;2022-10-16T01:29:59;4.40;;;2.28;;
28009;SDS011;15334;49.494;8.410;2022-10-16T01:32:33;4.65;;;1.92;;
28009;SDS011;15334;49.494;8.410;2022-10-16T01:35:05;4.30;;;2.15;;
28009;SDS011;15334;49.494;8.410;2022-10-16T01:37:40;4.95;;;2.75;;
28009;SDS011;15334;49.494;8.410;2022-10-16T01:40:12;3.80;;;2.30;;
28009;SDS011;15334;49.494;8.410;2022-10-16T01:42:46;3.35;;;1.85;;
28009;SDS011;15334;49.494;8.410;2022-10-16T01:45:18;3.53;;;2.15;;
28009;SDS011;15334;49.494;8.410;2022-10-16T01:47:47;3.67;;;2.00;;
28009;SDS011;15334;49.494;8.410;2022-10-16T01:50:17;7.22;;;2.60;;
28009;SDS011;15334;49.494;8.410;2022-10-16T01:52:48;4.78;;;2.63;;
28009;SDS011;15334;49.494;8.410;2022-10-16T01:55:20;5.50;;;2.70;;
28009;SDS011;15334;49.494;8.410;2022-10-16T01:57:54;6.25;;;2.30;;
28009;SDS011;15334;49.494;8.410;2022-10-16T02:00:23;3.97;;;1.98;;
28009;SDS011;15334;49.494;8.410;2022-10-16T02:02:52;3.78;;;2.17;;
28009;SDS011;15334;49.494;8.410;2022-10-16T02:05:23;7.40;;;2.58;;
28009;SDS011;15334;49.494;8.410;2022-10-16T02:07:58;5.20;;;2.03;;
28009;SDS011;15334;49.494;8.410;2022-10-16T02:10:30;3.55;;;2.17;;
28009;SDS011;15334;49.494;8.410;2022-10-16T02:13:01;3.47;;;2.03;;
28009;SDS011;15334;49.494;8.410;2022-10-16T02:15:33;3.90;;;2.15;;
28009;SDS011;15334;49.494;8.410;2022-10-16T02:18:02;3.92;;;2.40;;
28009;SDS011;15334;49.494;8.410;2022-10-16T02:20:32;3.65;;;2.17;;
28009;SDS011;15334;49.494;8.410;2022-10-16T02:23:05;4.05;;;2.00;;
28009;SDS011;15334;49.494;8.410;2022-10-16T02:25:39;9.32;;;2.55;;
28009;SDS011;15334;49.494;8.410;2022-10-16T02:28:11;3.15;;;2.00;;
28009;SDS011;15334;49.494;8.410;2022-10-16T02:30:45;6.47;;;2.40;;
28009;SDS011;15334;49.494;8.410;2022-10-16T02:35:46;3.90;;;2.15;;
28009;SDS011;15334;49.494;8.410;2022-10-16T02:38:17;4.40;;;2.13;;
28009;SDS011;15334;49.494;8.410;2022-10-16T02:40:46;5.35;;;2.17;;
28009;SDS011;15334;49.494;8.410;2022-10-16T02:43:17;4.63;;;2.03;;
28009;SDS011;15334;49.494;8.410;2022-10-16T02:45:46;4.25;;;2.08;;
28009;SDS011;15334;49.494;8.410;2022-10-16T02:48:14;3.13;;;1.80;;
28009;SDS011;15334;49.494;8.410;2022-10-16T02:50:42;4.22;;;2.10;;
28009;SDS011;15334;49.494;8.410;2022-10-16T02:53:10;3.35;;;1.80;;
28009;SDS011;15334;49.494;8.410;2022-10-16T02:55:38;3.42;;;1.60;;
28009;SDS011;15334;49.494;8.410;2022-10-16T02:58:06;4.72;;;2.22;;
28009;SDS011;15334;49.494;8.410;2022-10-16T03:00:35;3.30;;;1.90;;
28009;SDS011;15334;49.494;8.410;2022-10-16T03:03:03;4.05;;;1.95;;
28009;SDS011;15334;49.494;8.410;2022-10-16T03:05:31;2.55;;;1.52;;
28009;SDS011;15334;49.494;8.410;2022-10-16T03:07:59;4.03;;;2.03;;
28009;SDS011;15334;49.494;8.410;2022-10-16T03:10:27;3.50;;;1.95;;
28009;SDS011;15334;49.494;8.410;2022-10-16T03:12:55;5.43;;;2.03;;
28009;SDS011;15334;49.494;8.410;2022-10-16T03:15:23;2.65;;;1.45;;
28009;SDS011;15334;49.494;8.410;2022-10-16T03:17:53;5.95;;;2.00;;
28009;SDS011;15334;49.494;8.410;2022-10-16T03:20:21;8.70;;;1.70;;
28009;SDS011;15334;49.494;8.410;2022-10-16T03:22:49;3.78;;;2.05;;
28009;SDS011;15334;49.494;8.410;2022-10-16T03:25:17;3.10;;;1.77;;
28009;SDS011;15334;49.494;8.410;2022-10-16T03:27:45;3.60;;;1.35;;
28009;SDS011;15334;49.494;8.410;2022-10-16T03:30:16;7.60;;;2.00;;
28009;SDS011;15334;49.494;8.410;2022-10-16T03:32:44;4.43;;;2.58;;
28009;SDS011;15334;49.494;8.410;2022-10-16T03:35:13;4.68;;;1.85;;
28009;SDS011;15334;49.494;8.410;2022-10-16T03:37:41;4.57;;;2.00;;
28009;SDS011;15334;49.494;8.410;2022-10-16T03:40:10;3.58;;;2.00;;
28009;SDS011;15334;49.494;8.410;2022-10-16T03:42:38;5.38;;;2.42;;
28009;SDS011;15334;49.494;8.410;2022-10-16T03:45:06;5.07;;;2.13;;
28009;SDS011;15334;49.494;8.410;2022-10-16T03:47:35;3.75;;;2.20;;
28009;SDS011;15334;49.494;8.410;2022-10-16T03:50:03;3.63;;;1.67;;
28009;SDS011;15334;49.494;8.410;2022-10-16T03:52:33;4.18;;;1.85;;
28009;SDS011;15334;49.494;8.410;2022-10-16T03:55:02;4.43;;;2.30;;
28009;SDS011;15334;49.494;8.410;2022-10-16T03:57:30;4.75;;;2.20;;
28009;SDS011;15334;49.494;8.410;2022-10-16T03:59:58;4.65;;;2.13;;
28009;SDS011;15334;49.494;8.410;2022-10-16T04:02:26;4.13;;;2.15;;
28009;SDS011;15334;49.494;8.410;2022-10-16T04:04:54;7.68;;;2.40;;
28009;SDS011;15334;49.494;8.410;2022-10-16T04:07:22;7.10;;;2.60;;
28009;SDS011;15334;49.494;8.410;2022-10-16T04:09:52;5.88;;;2.42;;
28009;SDS011;15334;49.494;8.410;2022-10-16T04:12:19;4.82;;;2.13;;
28009;SDS011;15334;49.494;8.410;2022-10-16T04:14:47;4.38;;;2.22;;
28009;SDS011;15334;49.494;8.410;2022-10-16T04:17:15;5.13;;;2.25;;
28009;SDS011;15334;49.494;8.410;2022-10-16T04:19:46;4.22;;;2.33;;
28009;SDS011;15334;49.494;8.410;2022-10-16T04:22:14;3.40;;;1.92;;
28009;SDS011;15334;49.494;8.410;2022-10-16T04:24:42;4.65;;;2.33;;
28009;SDS011;15334;49.494;8.410;2022-10-16T04:27:11;3.70;;;1.98;;
28009;SDS011;15334;49.494;8.410;2022-10-16T04:29:39;4.47;;;1.88;;
28009;SDS011;15334;49.494;8.410;2022-10-16T04:32:07;4.25;;;1.95;;
28009;SDS011;15334;49.494;8.410;2022-10-16T04:34:36;5.82;;;2.28;;
28009;SDS011;15334;49.494;8.410;2022-10-16T04:37:06;3.45;;;2.00;;
28009;SDS011;15334;49.494;8.410;2022-10-16T04:39:35;5.30;;;2.10;;
28009;SDS011;15334;49.494;8.410;2022-10-16T04:42:03;11.18;;;2.60;;
28009;SDS011;15334;49.494;8.410;2022-10-16T04:44:32;5.10;;;2.15;;
28009;SDS011;15334;49.494;8.410;2022-10-16T04:47:00;3.45;;;2.00;;
28009;SDS011;15334;49.494;8.410;2022-10-16T04:49:28;3.17;;;1.77;;
28009;SDS011;15334;49.494;8.410;2022-10-16T04:51:56;4.57;;;2.22;;
28009;SDS011;15334;49.494;8.410;2022-10-16T04:54:24;4.97;;;2.35;;
28009;SDS011;15334;49.494;8.410;2022-10-16T04:56:52;6.15;;;2.50;;
28009;SDS011;15334;49.494;8.410;2022-10-16T04:59:20;4.35;;;2.15;;
28009;SDS011;15334;49.494;8.410;2022-10-16T05:01:50;5.72;;;2.53;;
28009;SDS011;15334;49.494;8.410;2022-10-16T05:04:18;5.85;;;2.35;;
28009;SDS011;15334;49.494;8.410;2022-10-16T05:06:49;4.50;;;2.22;;
28009;SDS011;15334;49.494;8.410;2022-10-16T05:09:17;5.70;;;2.53;;
28009;SDS011;15334;49.494;8.410;2022-10-16T05:11:45;7.00;;;2.58;;
28009;SDS011;15334;49.494;8.410;2022-10-16T05:14:13;5.60;;;3.13;;
28009;SDS011;15334;49.494;8.410;2022-10-16T05:16:40;4.75;;;2.60;;
28009;SDS011;15334;49.494;8.410;2022-10-16T05:19:10;8.32;;;3.13;;
28009;SDS011;15334;49.494;8.410;2022-10-16T05:21:52;5.30;;;2.80;;
28009;SDS011;15334;49.494;8.410;2022-10-16T05:24:21;6.38;;;3.22;;
28009;SDS011;15334;49.494;8.410;2022-10-16T05:26:49;6.28;;;3.15;;
28009;SDS011;15334;49.494;8.410;2022-10-16T05:29:17;6.10;;;3.20;;
28009;SDS011;15334;49.494;8.410;2022-10-16T05:31:45;8.07;;;3.30;;
28009;SDS011;15334;49.494;8.410;2022-10-16T05:34:14;7.22;;;4.00;;
28009;SDS011;15334;49.494;8.410;2022-10-16T05:36:42;7.90;;;3.90;;
28009;SDS011;15334;49.494;8.410;2022-10-16T05:39:11;9.65;;;4.65;;
28009;SDS011;15334;49.494;8.410;2022-10-16T05:41:41;7.80;;;4.72;;
28009;SDS011;15334;49.494;8.410;2022-10-16T05:44:09;7.32;;;4.63;;
28009;SDS011;15334;49.494;8.410;2022-10-16T05:46:37;8.68;;;4.22;;
28009;SDS011;15334;49.494;8.410;2022-10-16T05:49:05;7.03;;;3.95;;
28009;SDS011;15334;49.494;8.410;2022-10-16T05:51:35;8.50;;;4.70;;
28009;SDS011;15334;49.494;8.410;2022-10-16T05:54:03;6.75;;;2.90;;
28009;SDS011;15334;49.494;8.410;2022-10-16T05:56:31;8.82;;;4.20;;
28009;SDS011;15334;49.494;8.410;2022-10-16T05:58:59;8.77;;;3.70;;
28009;SDS011;15334;49.494;8.410;2022-10-16T06:01:27;10.85;;;3.20;;
28009;SDS011;15334;49.494;8.410;2022-10-16T06:03:55;6.65;;;3.15;;
28009;SDS011;15334;49.494;8.410;2022-10-16T06:06:23;7.38;;;2.53;;
28009;SDS011;15334;49.494;8.410;2022-10-16T06:08:54;4.28;;;2.50;;
28009;SDS011;15334;49.494;8.410;2022-10-16T06:11:24;7.97;;;3.05;;
28009;SDS011;15334;49.494;8.410;2022-10-16T06:13:53;4.38;;;2.63;;
28009;SDS011;15334;49.494;8.410;2022-10-16T06:16:26;5.07;;;2.72;;
28009;SDS011;15334;49.494;8.410;2022-10-16T06:18:55;4.43;;;2.50;;
28009;SDS011;15334;49.494;8.410;2022-10-16T06:21:24;6.05;;;2.40;;
28009;SDS011;15334;49.494;8.410;2022-10-16T06:23:55;4.82;;;2.60;;
28009;SDS011;15334;49.494;8.410;2022-10-16T06:26:24;4.50;;;2.28;;
28009;SDS011;15334;49.494;8.410;2022-10-16T06:28:54;5.50;;;2.45;;
28009;SDS011;15334;49.494;8.410;2022-10-16T06:31:23;7.90;;;3.22;;
28009;SDS011;15334;49.494;8.410;2022-10-16T06:33:54;6.55;;;2.85;;
28009;SDS011;15334;49.494;8.410;2022-10-16T06:36:22;4.45;;;2.28;;
28009;SDS011;15334;49.494;8.410;2022-10-16T06:38:51;9.52;;;2.63;;
28009;SDS011;15334;49.494;8.410;2022-10-16T06:41:21;6.10;;;2.75;;
28009;SDS011;15334;49.494;8.410;2022-10-16T06:43:56;7.75;;;2.45;;
28009;SDS011;15334;49.494;8.410;2022-10-16T06:46:24;4.47;;;2.88;;
28009;SDS011;15334;49.494;8.410;2022-10-16T06:48:53;5.95;;;2.63;;
28009;SDS011;15334;49.494;8.410;2022-10-16T06:51:21;5.05;;;2.38;;
28009;SDS011;15334;49.494;8.410;2022-10-16T06:53:53;7.20;;;2.35;;
28009;SDS011;15334;49.494;8.410;2022-10-16T06:56:32;6.13;;;2.58;;
28009;SDS011;15334;49.494;8.410;2022-10-16T06:59:01;4.70;;;2.47;;
28009;SDS011;15334;49.494;8.410;2022-10-16T07:01:29;6.75;;;2.50;;
28009;SDS011;15334;49.494;8.410;2022-10-16T07:03:57;4.03;;;2.28;;
28009;SDS011;15334;49.494;8.410;2022-10-16T07:06:30;5.78;;;2.00;;
28009;SDS011;15334;49.494;8.410;2022-10-16T07:09:01;5.17;;;2.47;;
28009;SDS011;15334;49.494;8.410;2022-10-16T07:11:35;7.00;;;2.83;;
28009;SDS011;15334;49.494;8.410;2022-10-16T07:14:04;9.70;;;2.47;;
28009;SDS011;15334;49.494;8.410;2022-10-16T07:16:41;6.82;;;2.55;;
28009;SDS011;15334;49.494;8.410;2022-10-16T07:19:09;7.78;;;2.83;;
28009;SDS011;15334;49.494;8.410;2022-10-16T07:21:38;5.72;;;2.67;;
28009;SDS011;15334;49.494;8.410;2022-10-16T07:24:07;8.95;;;2.50;;
28009;SDS011;15334;49.494;8.410;2022-10-16T07:26:40;7.10;;;2.30;;
28009;SDS011;15334;49.494;8.410;2022-10-16T07:29:11;10.55;;;3.72;;
28009;SDS011;15334;49.494;8.410;2022-10-16T07:31:41;5.63;;;2.97;;
28009;SDS011;15334;49.494;8.410;2022-10-16T07:34:09;5.97;;;2.58;;
28009;SDS011;15334;49.494;8.410;2022-10-16T07:36:39;4.28;;;2.05;;
28009;SDS011;15334;49.494;8.410;2022-10-16T07:39:12;6.28;;;2.40;;
28009;SDS011;15334;49.494;8.410;2022-10-16T07:41:41;4.22;;;2.03;;
28009;SDS011;15334;49.494;8.410;2022-10-16T07:44:09;5.40;;;2.35;;
28009;SDS011;15334;49.494;8.410;2022-10-16T07:46:37;6.55;;;2.08;;
28009;SDS011;15334;49.494;8.410;2022-10-16T07:49:08;4.38;;;2.10;;
28009;SDS011;15334;49.494;8.410;2022-10-16T07:51:36;3.97;;;1.88;;
28009;SDS011;15334;49.494;8.410;2022-10-16T07:54:08;4.20;;;2.42;;
28009;SDS011;15334;49.494;8.410;2022-10-16T07:56:36;7.38;;;2.38;;
28009;SDS011;15334;49.494;8.410;2022-10-16T07:59:11;4.03;;;2.17;;
28009;SDS011;15334;49.494;8.410;2022-10-16T08:01:39;4.72;;;2.20;;
28009;SDS011;15334;49.494;8.410;2022-10-16T08:04:10;7.18;;;2.38;;
28009;SDS011;15334;49.494;8.410;2022-10-16T08:06:39;5.10;;;2.05;;
28009;SDS011;15334;49.494;8.410;2022-10-16T08:09:07;4.22;;;2.13;;
28009;SDS011;15334;49.494;8.410;2022-10-16T08:11:36;4.95;;;2.50;;
28009;SDS011;15334;49.494;8.410;2022-10-16T08:14:04;5.60;;;2.67;;
28009;SDS011;15334;49.494;8.410;2022-10-16T08:16:33;4.60;;;2.33;;
28009;SDS011;15334;49.494;8.410;2022-10-16T08:19:01;4.28;;;2.20;;
28009;SDS011;15334;49.494;8.410;2022-10-16T08:21:29;4.88;;;2.33;;
28009;SDS011;15334;49.494;8.410;2022-10-16T08:23:59;5.88;;;2.67;;
28009;SDS011;15334;49.494;8.410;2022-10-16T08:26:27;5.90;;;3.08;;
28009;SDS011;15334;49.494;8.410;2022-10-16T08:28:55;6.07;;;3.25;;
28009;SDS011;15334;49.494;8.410;2022-10-16T08:31:25;8.32;;;2.58;;
28009;SDS011;15334;49.494;8.410;2022-10-16T08:33:54;5.47;;;2.33;;
28009;SDS011;15334;49.494;8.410;2022-10-16T08:36:22;3.90;;;2.00;;
28009;SDS011;15334;49.494;8.410;2022-10-16T08:38:50;10.32;;;3.22;;
28009;SDS011;15334;49.494;8.410;2022-10-16T08:41:22;7.55;;;3.33;;
28009;SDS011;15334;49.494;8.410;2022-10-16T08:44:22;8.52;;;3.58;;
28009;SDS011;15334;49.494;8.410;2022-10-16T08:47:09;6.47;;;3.22;;
28009;SDS011;15334;49.494;8.410;2022-10-16T08:49:47;7.28;;;3.33;;
28009;SDS011;15334;49.494;8.410;2022-10-16T08:54:56;6.68;;;3.10;;
28009;SDS011;15334;49.494;8.410;2022-10-16T08:57:25;6.93;;;2.72;;
28009;SDS011;15334;49.494;8.410;2022-10-16T08:59:53;5.97;;;3.38;;
28009;SDS011;15334;49.494;8.410;2022-10-16T09:02:28;4.90;;;2.95;;
28009;SDS011;15334;49.494;8.410;2022-10-16T09:05:17;7.10;;;3.05;;
28009;SDS011;15334;49.494;8.410;2022-10-16T09:07:55;10.60;;;3.85;;
28009;SDS011;15334;49.494;8.410;2022-10-16T09:10:39;7.55;;;3.22;;
28009;SDS011;15334;49.494;8.410;2022-10-16T09:13:17;6.35;;;2.88;;
28009;SDS011;15334;49.494;8.410;2022-10-16T09:15:53;7.18;;;3.75;;
28009;SDS011;15334;49.494;8.410;2022-10-16T09:18:29;6.22;;;2.78;;
28009;SDS011;15334;49.494;8.410;2022-10-16T09:21:07;6.90;;;2.88;;
28009;SDS011;15334;49.494;8.410;2022-10-16T09:23:41;5.30;;;3.13;;
28009;SDS011;15334;49.494;8.410;2022-10-16T09:26:09;6.10;;;3.08;;
28009;SDS011;15334;49.494;8.410;2022-10-16T09:28:40;7.80;;;2.92;;
28009;SDS011;15334;49.494;8.410;2022-10-16T09:31:12;6.15;;;3.20;;
28009;SDS011;15334;49.494;8.410;2022-10-16T09:33:43;6.20;;;2.70;;
28009;SDS011;15334;49.494;8.410;2022-10-16T09:36:16;7.45;;;3.47;;
28009;SDS011;15334;49.494;8.410;2022-10-16T09:38:45;7.22;;;3.53;;
28009;SDS011;15334;49.494;8.410;2022-10-16T09:41:14;6.43;;;3.13;;
28009;SDS011;15334;49.494;8.410;2022-10-16T09:43:48;7.72;;;3.20;;
28009;SDS011;15334;49.494;8.410;2022-10-16T09:46:21;4.43;;;2.95;;
28009;SDS011;15334;49.494;8.410;2022-10-16T09:48:55;6.35;;;3.10;;
28009;SDS011;15334;49.494;8.410;2022-10-16T09:51:26;7.47;;;3.50;;
28009;SDS011;15334;49.494;8.410;2022-10-16T09:53:57;5.03;;;2.92;;
28009;SDS011;15334;49.494;8.410;2022-10-16T09:56:29;5.20;;;2.80;;
28009;SDS011;15334;49.494;8.410;2022-10-16T09:59:52;4.20;;;2.65;;
28009;SDS011;15334;49.494;8.410;2022-10-16T10:07:00;7.57;;;2.88;;
28009;SDS011;15334;49.494;8.410;2022-10-16T10:09:29;6.90;;;3.03;;
28009;SDS011;15334;49.494;8.410;2022-10-16T10:12:02;6.45;;;3.85;;
28009;SDS011;15334;49.494;8.410;2022-10-16T10:14:32;4.93;;;3.30;;
28009;SDS011;15334;49.494;8.410;2022-10-16T10:17:11;4.32;;;2.75;;
28009;SDS011;15334;49.494;8.410;2022-10-16T10:19:41;7.03;;;3.28;;
28009;SDS011;15334;49.494;8.410;2022-10-16T10:22:17;5.63;;;3.00;;
28009;SDS011;15334;49.494;8.410;2022-10-16T10:25:00;4.72;;;3.00;;
28009;SDS011;15334;49.494;8.410;2022-10-16T10:28:18;5.50;;;3.17;;
28009;SDS011;15334;49.494;8.410;2022-10-16T10:30:56;5.30;;;3.10;;
28009;SDS011;15334;49.494;8.410;2022-10-16T10:33:36;3.38;;;2.35;;
28009;SDS011;15334;49.494;8.410;2022-10-16T10:36:16;6.13;;;2.50;;
28009;SDS011;15334;49.494;8.410;2022-10-16T10:38:54;4.50;;;2.25;;
28009;SDS011;15334;49.494;8.410;2022-10-16T10:41:44;4.43;;;2.15;;
28009;SDS011;15334;49.494;8.410;2022-10-16T10:44:34;4.28;;;2.10;;
28009;SDS011;15334;49.494;8.410;2022-10-16T10:47:15;6.00;;;2.55;;
28009;SDS011;15334;49.494;8.410;2022-10-16T10:49:52;3.67;;;2.03;;
28009;SDS011;15334;49.494;8.410;2022-10-16T10:52:32;3.28;;;1.52;;
28009;SDS011;15334;49.494;8.410;2022-10-16T10:55:14;3.33;;;1.60;;
28009;SDS011;15334;49.494;8.410;2022-10-16T10:57:53;1.85;;;1.15;;
28009;SDS011;15334;49.494;8.410;2022-10-16T11:00:27;7.72;;;1.20;;
28009;SDS011;15334;49.494;8.410;2022-10-16T11:02:59;1.63;;;0.70;;
28009;SDS011;15334;49.494;8.410;2022-10-16T11:05:40;2.42;;;1.20;;
28009;SDS011;15334;49.494;8.410;2022-10-16T11:08:11;5.03;;;1.35;;
28009;SDS011;15334;49.494;8.410;2022-10-16T11:10:47;2.25;;;0.95;;
28009;SDS011;15334;49.494;8.410;2022-10-16T11:13:22;1.83;;;1.00;;
28009;SDS011;15334;49.494;8.410;2022-10-16T11:15:56;1.60;;;0.88;;
28009;SDS011;15334;49.494;8.410;2022-10-16T11:20:58;1.63;;;0.90;;
28009;SDS011;15334;49.494;8.410;2022-10-16T11:23:30;1.65;;;1.17;;
28009;SDS011;15334;49.494;8.410;2022-10-16T11:26:04;2.10;;;1.08;;
28009;SDS011;15334;49.494;8.410;2022-10-16T11:28:38;2.85;;;1.25;;
28009;SDS011;15334;49.494;8.410;2022-10-16T11:31:14;2.65;;;1.02;;
28009;SDS011;15334;49.494;8.410;2022-10-16T11:33:47;3.30;;;1.15;;
28009;SDS011;15334;49.494;8.410;2022-10-16T11:36:20;2.92;;;1.20;;
28009;SDS011;15334;49.494;8.410;2022-10-16T11:38:54;2.33;;;1.17;;
28009;SDS011;15334;49.494;8.410;2022-10-16T11:41:32;1.83;;;0.85;;
28009;SDS011;15334;49.494;8.410;2022-10-16T11:44:07;3.00;;;1.20;;
28009;SDS011;15334;49.494;8.410;2022-10-16T11:46:44;1.65;;;1.17;;
28009;SDS011;15334;49.494;8.410;2022-10-16T11:49:38;2.40;;;1.30;;
28009;SDS011;15334;49.494;8.410;2022-10-16T11:52:12;1.95;;;1.13;;
28009;SDS011;15334;49.494;8.410;2022-10-16T11:54:45;2.40;;;1.20;;
28009;SDS011;15334;49.494;8.410;2022-10-16T11:57:21;2.95;;;1.20;;
28009;SDS011;15334;49.494;8.410;2022-10-16T11:59:52;3.97;;;1.15;;
28009;SDS011;15334;49.494;8.410;2022-10-16T12:02:30;2.83;;;1.42;;
28009;SDS011;15334;49.494;8.410;2022-10-16T12:05:10;4.15;;;1.50;;
28009;SDS011;15334;49.494;8.410;2022-10-16T12:07:46;4.07;;;1.50;;
28009;SDS011;15334;49.494;8.410;2022-10-16T12:10:22;3.83;;;1.40;;
28009;SDS011;15334;49.494;8.410;2022-10-16T12:12:54;3.05;;;1.50;;
28009;SDS011;15334;49.494;8.410;2022-10-16T12:15:24;2.58;;;1.40;;
28009;SDS011;15334;49.494;8.410;2022-10-16T12:18:20;2.72;;;1.45;;
28009;SDS011;15334;49.494;8.410;2022-10-16T12:20:54;2.72;;;1.50;;
28009;SDS011;15334;49.494;8.410;2022-10-16T12:23:27;4.03;;;1.60;;
28009;SDS011;15334;49.494;8.410;2022-10-16T12:25:56;2.38;;;1.48;;
28009;SDS011;15334;49.494;8.410;2022-10-16T12:28:27;2.92;;;1.63;;
28009;SDS011;15334;49.494;8.410;2022-10-16T12:30:58;4.07;;;1.73;;
28009;SDS011;15334;49.494;8.410;2022-10-16T12:33:28;2.88;;;1.55;;
28009;SDS011;15334;49.494;8.410;2022-10-16T12:35:59;1.93;;;1.20;;
28009;SDS011;15334;49.494;8.410;2022-10-16T12:38:31;3.43;;;1.63;;
28009;SDS011;15334;49.494;8.410;2022-10-16T12:41:06;2.08;;;1.50;;
28009;SDS011;15334;49.494;8.410;2022-10-16T12:43:40;2.20;;;1.20;;
28009;SDS011;15334;49.494;8.410;2022-10-16T12:46:23;3.85;;;1.65;;
28009;SDS011;15334;49.494;8.410;2022-10-16T12:51:34;4.80;;;1.67;;
28009;SDS011;15334;49.494;8.410;2022-10-16T12:54:04;3.75;;;1.75;;
28009;SDS011;15334;49.494;8.410;2022-10-16T12:56:41;2.50;;;1.90;;
28009;SDS011;15334;49.494;8.410;2022-10-16T12:59:21;3.90;;;1.52;;
28009;SDS011;15334;49.494;8.410;2022-10-16T13:02:04;4.28;;;2.03;;
28009;SDS011;15334;49.494;8.410;2022-10-16T13:04:59;3.47;;;1.70;;
28009;SDS011;15334;49.494;8.410;2022-10-16T13:07:43;3.10;;;1.73;;
28009;SDS011;15334;49.494;8.410;2022-10-16T13:13:00;3.38;;;1.60;;
28009;SDS011;15334;49.494;8.410;2022-10-16T13:15:50;3.58;;;2.10;;
28009;SDS011;15334;49.494;8.410;2022-10-16T13:18:27;3.22;;;1.55;;
28009;SDS011;15334;49.494;8.410;2022-10-16T13:21:06;4.70;;;1.85;;
28009;SDS011;15334;49.494;8.410;2022-10-16T13:23:47;4.97;;;1.90;;
28009;SDS011;15334;49.494;8.410;2022-10-16T13:26:26;3.35;;;1.60;;
28009;SDS011;15334;49.494;8.410;2022-10-16T13:29:03;4.03;;;1.98;;
28009;SDS011;15334;49.494;8.410;2022-10-16T13:31:33;5.50;;;1.90;;
28009;SDS011;15334;49.494;8.410;2022-10-16T13:34:01;3.20;;;1.55;;
28009;SDS011;15334;49.494;8.410;2022-10-16T13:36:33;3.92;;;1.60;;
28009;SDS011;15334;49.494;8.410;2022-10-16T13:39:10;2.70;;;1.52;;
28009;SDS011;15334;49.494;8.410;2022-10-16T13:41:40;4.10;;;1.75;;
28009;SDS011;15334;49.494;8.410;2022-10-16T13:44:12;6.00;;;1.63;;
28009;SDS011;15334;49.494;8.410;2022-10-16T13:46:44;3.33;;;1.65;;
28009;SDS011;15334;49.494;8.410;2022-10-16T13:49:13;4.65;;;2.75;;
28009;SDS011;15334;49.494;8.410;2022-10-16T13:51:53;3.20;;;1.70;;
28009;SDS011;15334;49.494;8.410;2022-10-16T13:54:23;3.05;;;1.73;;
28009;SDS011;15334;49.494;8.410;2022-10-16T13:59:36;3.33;;;1.70;;
28009;SDS011;15334;49.494;8.410;2022-10-16T14:02:08;3.83;;;1.75;;
28009;SDS011;15334;49.494;8.410;2022-10-16T14:04:46;2.60;;;1.48;;
28009;SDS011;15334;49.494;8.410;2022-10-16T14:07:18;3.47;;;1.90;;
28009;SDS011;15334;49.494;8.410;2022-10-16T14:09:51;2.97;;;1.42;;
28009;SDS011;15334;49.494;8.410;2022-10-16T14:12:21;4.15;;;1.95;;
28009;SDS011;15334;49.494;8.410;2022-10-16T14:14:54;3.28;;;1.52;;
28009;SDS011;15334;49.494;8.410;2022-10-16T14:17:25;3.75;;;2.13;;
28009;SDS011;15334;49.494;8.410;2022-10-16T14:22:30;2.60;;;1.63;;
28009;SDS011;15334;49.494;8.410;2022-10-16T14:25:00;3.97;;;2.20;;
28009;SDS011;15334;49.494;8.410;2022-10-16T14:27:30;4.35;;;1.70;;
28009;SDS011;15334;49.494;8.410;2022-10-16T14:32:59;3.55;;;1.55;;
28009;SDS011;15334;49.494;8.410;2022-10-16T14:35:29;3.03;;;1.67;;
28009;SDS011;15334;49.494;8.410;2022-10-16T14:37:59;2.55;;;1.73;;
28009;SDS011;15334;49.494;8.410;2022-10-16T14:40:29;2.92;;;1.70;;
28009;SDS011;15334;49.494;8.410;2022-10-16T14:42:59;3.28;;;1.73;;
28009;SDS011;15334;49.494;8.410;2022-10-16T14:45:28;3.45;;;1.70;;
28009;SDS011;15334;49.494;8.410;2022-10-16T14:48:00;2.55;;;1.50;;
28009;SDS011;15334;49.494;8.410;2022-10-16T14:50:31;3.42;;;1.75;;
28009;SDS011;15334;49.494;8.410;2022-10-16T14:52:59;8.10;;;2.00;;
28009;SDS011;15334;49.494;8.410;2022-10-16T14:55:36;2.72;;;1.73;;
28009;SDS011;15334;49.494;8.410;2022-10-16T14:58:04;5.43;;;1.67;;
28009;SDS011;15334;49.494;8.410;2022-10-16T15:00:32;4.60;;;1.67;;
28009;SDS011;15334;49.494;8.410;2022-10-16T15:03:01;3.97;;;2.15;;
28009;SDS011;15334;49.494;8.410;2022-10-16T15:05:29;3.20;;;1.70;;
28009;SDS011;15334;49.494;8.410;2022-10-16T15:07:58;6.07;;;2.38;;
28009;SDS011;15334;49.494;8.410;2022-10-16T15:10:27;4.22;;;2.00;;
28009;SDS011;15334;49.494;8.410;2022-10-16T15:12:55;5.22;;;2.20;;
28009;SDS011;15334;49.494;8.410;2022-10-16T15:15:31;3.80;;;2.10;;
28009;SDS011;15334;49.494;8.410;2022-10-16T15:18:03;5.20;;;1.95;;
28009;SDS011;15334;49.494;8.410;2022-10-16T15:20:34;4.95;;;2.20;;
28009;SDS011;15334;49.494;8.410;2022-10-16T15:23:05;4.88;;;2.60;;
28009;SDS011;15334;49.494;8.410;2022-10-16T15:25:38;4.13;;;2.30;;
28009;SDS011;15334;49.494;8.410;2022-10-16T15:28:09;7.47;;;3.13;;
28009;SDS011;15334;49.494;8.410;2022-10-16T15:30:40;5.07;;;2.47;;
28009;SDS011;15334;49.494;8.410;2022-10-16T15:33:15;3.55;;;2.10;;
28009;SDS011;15334;49.494;8.410;2022-10-16T15:35:46;4.30;;;2.25;;
28009;SDS011;15334;49.494;8.410;2022-10-16T15:38:15;4.80;;;2.50;;
28009;SDS011;15334;49.494;8.410;2022-10-16T15:40:45;5.25;;;2.30;;
28009;SDS011;15334;49.494;8.410;2022-10-16T15:43:13;5.28;;;2.38;;